sensor_id;sensor_type;location;lat;lon;timestamp;temperature;humidity
16929;DHT22;8581;47.334;11.190;2023-04-20T00:00:01;1.60;99.90
16929;DHT22;8581;47.334;11.190;2023-04-20T00:02:32;1.50;99.90
16929;DHT22;8581;47.334;11.190;2023-04-20T00:05:05;1.40;99.90
16929;DHT22;8581;47.334;11.190;2023-04-20T00:07:37;1.50;99.90
16929;DHT22;8581;47.334;11.190;2023-04-20T00:10:09;1.50;99.90
16929;DHT22;8581;47.334;11.190;2023-04-20T00:12:40;1.40;99.90
16929;DHT22;8581;47.334;11.190;2023-04-20T00:15:12;1.30;99.90
16929;DHT22;8581;47.334;11.190;2023-04-20T00:17:44;1.30;99.90
16929;DHT22;8581;47.334;11.190;2023-04-20T00:20:15;1.20;99.90
16929;DHT22;8581;47.334;11.190;2023-04-20T00:22:47;1.30;99.90
16929;DHT22;8581;47.334;11.190;2023-04-20T00:25:19;1.40;99.90
16929;DHT22;8581;47.334;11.190;2023-04-20T00:27:50;1.40;99.90
16929;DHT22;8581;47.334;11.190;2023-04-20T00:30:22;1.50;99.90
16929;DHT22;8581;47.334;11.190;2023-04-20T00:32:53;1.50;99.90
16929;DHT22;8581;47.334;11.190;2023-04-20T00:35:25;1.40;99.90
16929;DHT22;8581;47.334;11.190;2023-04-20T00:37:56;1.40;99.90
16929;DHT22;8581;47.334;11.190;2023-04-20T00:40:28;1.60;99.90
16929;DHT22;8581;47.334;11.190;2023-04-20T00:43:08;2.50;99.90
16929;DHT22;8581;47.334;11.190;2023-04-20T00:45:39;1.60;99.90
16929;DHT22;8581;47.334;11.190;2023-04-20T00:48:11;1.70;99.90
16929;DHT22;8581;47.334;11.190;2023-04-20T00:50:42;1.70;99.90
16929;DHT22;8581;47.334;11.190;2023-04-20T00:53:14;1.70;99.90
16929;DHT22;8581;47.334;11.190;2023-04-20T00:55:45;1.70;99.90
16929;DHT22;8581;47.334;11.190;2023-04-20T00:58:17;1.70;99.90
16929;DHT22;8581;47.334;11.190;2023-04-20T01:00:49;1.70;99.90
16929;DHT22;8581;47.334;11.190;2023-04-20T01:03:20;1.60;99.90
16929;DHT22;8581;47.334;11.190;2023-04-20T01:05:52;1.60;99.90
16929;DHT22;8581;47.334;11.190;2023-04-20T01:08:25;1.70;99.90
16929;DHT22;8581;47.334;11.190;2023-04-20T01:10:56;1.70;99.90
16929;DHT22;8581;47.334;11.190;2023-04-20T01:13:28;1.70;99.90
16929;DHT22;8581;47.334;11.190;2023-04-20T01:15:59;1.70;99.90
16929;DHT22;8581;47.334;11.190;2023-04-20T01:18:47;1.80;99.90
16929;DHT22;8581;47.334;11.190;2023-04-20T01:21:18;1.80;99.90
16929;DHT22;8581;47.334;11.190;2023-04-20T01:23:49;1.70;99.90
16929;DHT22;8581;47.334;11.190;2023-04-20T01:26:22;1.60;99.90
16929;DHT22;8581;47.334;11.190;2023-04-20T01:28:52;1.70;99.90
16929;DHT22;8581;47.334;11.190;2023-04-20T01:31:24;1.60;99.90
16929;DHT22;8581;47.334;11.190;2023-04-20T01:33:55;1.50;99.90
16929;DHT22;8581;47.334;11.190;2023-04-20T01:36:27;1.50;99.90
16929;DHT22;8581;47.334;11.190;2023-04-20T01:38:59;1.60;99.90
16929;DHT22;8581;47.334;11.190;2023-04-20T01:41:30;1.60;99.90
16929;DHT22;8581;47.334;11.190;2023-04-20T01:44:02;1.50;99.90
16929;DHT22;8581;47.334;11.190;2023-04-20T01:46:36;1.50;99.90
16929;DHT22;8581;47.334;11.190;2023-04-20T01:49:07;1.50;99.90
16929;DHT22;8581;47.334;11.190;2023-04-20T01:51:39;1.60;99.90
16929;DHT22;8581;47.334;11.190;2023-04-20T01:54:10;1.70;99.90
16929;DHT22;8581;47.334;11.190;2023-04-20T01:56:42;1.60;99.90
16929;DHT22;8581;47.334;11.190;2023-04-20T01:59:14;1.60;99.90
16929;DHT22;8581;47.334;11.190;2023-04-20T02:01:45;1.60;99.90
16929;DHT22;8581;47.334;11.190;2023-04-20T02:04:17;1.50;99.90
16929;DHT22;8581;47.334;11.190;2023-04-20T02:06:49;1.30;99.90
16929;DHT22;8581;47.334;11.190;2023-04-20T02:09:20;1.40;99.90
16929;DHT22;8581;47.334;11.190;2023-04-20T02:11:52;1.40;99.90
16929;DHT22;8581;47.334;11.190;2023-04-20T02:14:23;1.40;99.90
16929;DHT22;8581;47.334;11.190;2023-04-20T02:16:55;1.50;99.90
16929;DHT22;8581;47.334;11.190;2023-04-20T02:19:26;1.40;99.90
16929;DHT22;8581;47.334;11.190;2023-04-20T02:21:58;1.50;99.90
16929;DHT22;8581;47.334;11.190;2023-04-20T02:24:30;1.70;99.90
16929;DHT22;8581;47.334;11.190;2023-04-20T02:27:01;1.60;99.90
16929;DHT22;8581;47.334;11.190;2023-04-20T02:29:33;1.60;99.90
16929;DHT22;8581;47.334;11.190;2023-04-20T02:32:05;1.70;99.90
16929;DHT22;8581;47.334;11.190;2023-04-20T02:34:38;1.70;99.90
16929;DHT22;8581;47.334;11.190;2023-04-20T02:37:09;1.70;99.90
16929;DHT22;8581;47.334;11.190;2023-04-20T02:39:41;1.70;99.90
16929;DHT22;8581;47.334;11.190;2023-04-20T02:42:12;1.60;99.90
16929;DHT22;8581;47.334;11.190;2023-04-20T02:44:44;1.50;99.90
16929;DHT22;8581;47.334;11.190;2023-04-20T02:47:16;1.60;99.90
16929;DHT22;8581;47.334;11.190;2023-04-20T02:49:47;1.60;99.90
16929;DHT22;8581;47.334;11.190;2023-04-20T02:52:19;1.70;99.90
16929;DHT22;8581;47.334;11.190;2023-04-20T02:54:51;1.70;99.90
16929;DHT22;8581;47.334;11.190;2023-04-20T02:57:23;1.60;99.90
16929;DHT22;8581;47.334;11.190;2023-04-20T02:59:54;1.60;99.90
16929;DHT22;8581;47.334;11.190;2023-04-20T03:02:26;1.70;99.90
16929;DHT22;8581;47.334;11.190;2023-04-20T03:04:58;1.70;99.90
16929;DHT22;8581;47.334;11.190;2023-04-20T03:07:29;1.70;99.90
16929;DHT22;8581;47.334;11.190;2023-04-20T03:10:01;1.80;99.90
16929;DHT22;8581;47.334;11.190;2023-04-20T03:12:32;1.90;99.90
16929;DHT22;8581;47.334;11.190;2023-04-20T03:15:05;1.80;99.90
16929;DHT22;8581;47.334;11.190;2023-04-20T03:17:36;1.90;99.90
16929;DHT22;8581;47.334;11.190;2023-04-20T03:20:08;2.00;99.90
16929;DHT22;8581;47.334;11.190;2023-04-20T03:22:40;2.00;99.90
16929;DHT22;8581;47.334;11.190;2023-04-20T03:25:11;2.00;99.90
16929;DHT22;8581;47.334;11.190;2023-04-20T03:27:44;1.90;99.90
16929;DHT22;8581;47.334;11.190;2023-04-20T03:30:16;1.80;99.90
16929;DHT22;8581;47.334;11.190;2023-04-20T03:32:47;1.70;99.90
16929;DHT22;8581;47.334;11.190;2023-04-20T03:35:19;1.60;99.90
16929;DHT22;8581;47.334;11.190;2023-04-20T03:37:50;1.70;99.90
16929;DHT22;8581;47.334;11.190;2023-04-20T03:40:22;1.70;99.90
16929;DHT22;8581;47.334;11.190;2023-04-20T03:42:54;1.70;99.90
16929;DHT22;8581;47.334;11.190;2023-04-20T03:45:25;1.60;99.90
16929;DHT22;8581;47.334;11.190;2023-04-20T03:47:57;1.60;99.90
16929;DHT22;8581;47.334;11.190;2023-04-20T03:50:29;1.60;99.90
16929;DHT22;8581;47.334;11.190;2023-04-20T03:53:00;1.60;99.90
16929;DHT22;8581;47.334;11.190;2023-04-20T03:55:32;1.90;99.90
16929;DHT22;8581;47.334;11.190;2023-04-20T03:58:04;1.90;99.90
16929;DHT22;8581;47.334;11.190;2023-04-20T04:00:36;2.00;99.90
16929;DHT22;8581;47.334;11.190;2023-04-20T04:03:08;1.90;99.90
16929;DHT22;8581;47.334;11.190;2023-04-20T04:05:40;2.10;99.90
16929;DHT22;8581;47.334;11.190;2023-04-20T04:08:11;2.10;99.90
16929;DHT22;8581;47.334;11.190;2023-04-20T04:10:43;2.40;99.90
16929;DHT22;8581;47.334;11.190;2023-04-20T04:13:14;2.30;99.90
16929;DHT22;8581;47.334;11.190;2023-04-20T04:15:46;2.30;99.90
16929;DHT22;8581;47.334;11.190;2023-04-20T04:18:19;2.40;99.90
16929;DHT22;8581;47.334;11.190;2023-04-20T04:20:49;2.30;99.90
16929;DHT22;8581;47.334;11.190;2023-04-20T04:23:21;2.30;99.90
16929;DHT22;8581;47.334;11.190;2023-04-20T04:25:54;2.20;99.90
16929;DHT22;8581;47.334;11.190;2023-04-20T04:28:26;2.10;99.90
16929;DHT22;8581;47.334;11.190;2023-04-20T04:30:58;2.10;99.90
16929;DHT22;8581;47.334;11.190;2023-04-20T04:33:32;2.30;99.90
16929;DHT22;8581;47.334;11.190;2023-04-20T04:36:04;2.20;99.90
16929;DHT22;8581;47.334;11.190;2023-04-20T04:38:36;2.30;99.90
16929;DHT22;8581;47.334;11.190;2023-04-20T04:41:07;2.20;99.90
16929;DHT22;8581;47.334;11.190;2023-04-20T04:43:39;2.20;99.90
16929;DHT22;8581;47.334;11.190;2023-04-20T04:46:11;2.40;99.90
16929;DHT22;8581;47.334;11.190;2023-04-20T04:48:42;2.30;99.90
16929;DHT22;8581;47.334;11.190;2023-04-20T04:51:14;2.30;99.90
16929;DHT22;8581;47.334;11.190;2023-04-20T04:53:46;2.20;99.90
16929;DHT22;8581;47.334;11.190;2023-04-20T04:56:17;2.30;99.90
16929;DHT22;8581;47.334;11.190;2023-04-20T04:58:49;2.40;99.90
16929;DHT22;8581;47.334;11.190;2023-04-20T05:01:20;2.40;99.90
16929;DHT22;8581;47.334;11.190;2023-04-20T05:03:52;2.40;99.90
16929;DHT22;8581;47.334;11.190;2023-04-20T05:06:24;2.40;99.90
16929;DHT22;8581;47.334;11.190;2023-04-20T05:08:55;2.30;99.90
16929;DHT22;8581;47.334;11.190;2023-04-20T05:11:27;2.40;99.90
16929;DHT22;8581;47.334;11.190;2023-04-20T05:13:58;2.40;99.90
16929;DHT22;8581;47.334;11.190;2023-04-20T05:16:30;2.40;99.90
16929;DHT22;8581;47.334;11.190;2023-04-20T05:19:02;2.50;99.90
16929;DHT22;8581;47.334;11.190;2023-04-20T05:21:33;2.30;99.90
16929;DHT22;8581;47.334;11.190;2023-04-20T05:24:05;2.10;99.90
16929;DHT22;8581;47.334;11.190;2023-04-20T05:26:37;2.10;99.90
16929;DHT22;8581;47.334;11.190;2023-04-20T05:29:08;2.10;99.90
16929;DHT22;8581;47.334;11.190;2023-04-20T05:31:40;2.20;99.90
16929;DHT22;8581;47.334;11.190;2023-04-20T05:34:11;2.20;99.90
16929;DHT22;8581;47.334;11.190;2023-04-20T05:36:43;2.10;99.90
16929;DHT22;8581;47.334;11.190;2023-04-20T05:39:15;1.90;99.90
16929;DHT22;8581;47.334;11.190;2023-04-20T05:41:46;1.70;99.90
16929;DHT22;8581;47.334;11.190;2023-04-20T05:44:18;1.70;99.90
16929;DHT22;8581;47.334;11.190;2023-04-20T05:46:49;1.70;99.90
16929;DHT22;8581;47.334;11.190;2023-04-20T05:49:21;1.60;99.90
16929;DHT22;8581;47.334;11.190;2023-04-20T05:51:53;1.60;99.90
16929;DHT22;8581;47.334;11.190;2023-04-20T05:54:24;1.40;99.90
16929;DHT22;8581;47.334;11.190;2023-04-20T05:56:56;1.20;99.90
16929;DHT22;8581;47.334;11.190;2023-04-20T05:59:29;1.20;99.90
16929;DHT22;8581;47.334;11.190;2023-04-20T06:02:01;1.50;99.90
16929;DHT22;8581;47.334;11.190;2023-04-20T06:04:33;1.60;99.90
16929;DHT22;8581;47.334;11.190;2023-04-20T06:07:06;1.50;99.90
16929;DHT22;8581;47.334;11.190;2023-04-20T06:09:37;1.40;99.90
16929;DHT22;8581;47.334;11.190;2023-04-20T06:12:09;1.50;99.90
16929;DHT22;8581;47.334;11.190;2023-04-20T06:14:41;1.40;99.90
16929;DHT22;8581;47.334;11.190;2023-04-20T06:17:12;1.30;99.90
16929;DHT22;8581;47.334;11.190;2023-04-20T06:19:45;1.40;99.90
16929;DHT22;8581;47.334;11.190;2023-04-20T06:22:17;1.40;99.90
16929;DHT22;8581;47.334;11.190;2023-04-20T06:24:49;1.40;99.90
16929;DHT22;8581;47.334;11.190;2023-04-20T06:27:21;1.40;99.90
16929;DHT22;8581;47.334;11.190;2023-04-20T06:29:52;1.30;99.90
16929;DHT22;8581;47.334;11.190;2023-04-20T06:32:24;1.40;99.90
16929;DHT22;8581;47.334;11.190;2023-04-20T06:34:55;1.50;99.90
16929;DHT22;8581;47.334;11.190;2023-04-20T06:37:27;1.50;99.90
16929;DHT22;8581;47.334;11.190;2023-04-20T06:39:59;1.40;99.90
16929;DHT22;8581;47.334;11.190;2023-04-20T06:42:30;1.50;99.90
16929;DHT22;8581;47.334;11.190;2023-04-20T06:45:02;1.40;99.90
16929;DHT22;8581;47.334;11.190;2023-04-20T06:47:34;1.40;99.90
16929;DHT22;8581;47.334;11.190;2023-04-20T06:50:06;1.50;99.90
16929;DHT22;8581;47.334;11.190;2023-04-20T06:52:38;1.60;99.90
16929;DHT22;8581;47.334;11.190;2023-04-20T06:55:09;1.60;99.90
16929;DHT22;8581;47.334;11.190;2023-04-20T06:57:41;1.80;99.90
16929;DHT22;8581;47.334;11.190;2023-04-20T07:00:13;1.80;99.90
16929;DHT22;8581;47.334;11.190;2023-04-20T07:02:46;1.80;99.90
16929;DHT22;8581;47.334;11.190;2023-04-20T07:05:17;2.00;99.90
16929;DHT22;8581;47.334;11.190;2023-04-20T07:07:48;2.20;99.90
16929;DHT22;8581;47.334;11.190;2023-04-20T07:10:20;2.10;99.90
16929;DHT22;8581;47.334;11.190;2023-04-20T07:12:51;2.00;99.90
16929;DHT22;8581;47.334;11.190;2023-04-20T07:15:23;1.70;99.90
16929;DHT22;8581;47.334;11.190;2023-04-20T07:17:55;1.80;99.90
16929;DHT22;8581;47.334;11.190;2023-04-20T07:20:26;2.10;99.90
16929;DHT22;8581;47.334;11.190;2023-04-20T07:22:58;2.20;99.90
16929;DHT22;8581;47.334;11.190;2023-04-20T07:25:29;2.30;99.90
16929;DHT22;8581;47.334;11.190;2023-04-20T07:28:02;2.40;99.90
16929;DHT22;8581;47.334;11.190;2023-04-20T07:30:33;2.40;99.90
16929;DHT22;8581;47.334;11.190;2023-04-20T07:33:05;2.70;99.90
16929;DHT22;8581;47.334;11.190;2023-04-20T07:35:37;2.80;99.90
16929;DHT22;8581;47.334;11.190;2023-04-20T07:38:09;2.90;99.90
16929;DHT22;8581;47.334;11.190;2023-04-20T07:40:40;2.90;99.90
16929;DHT22;8581;47.334;11.190;2023-04-20T07:43:11;3.00;99.90
16929;DHT22;8581;47.334;11.190;2023-04-20T07:45:43;3.50;99.90
16929;DHT22;8581;47.334;11.190;2023-04-20T07:48:15;3.50;99.90
16929;DHT22;8581;47.334;11.190;2023-04-20T07:50:46;3.40;99.90
16929;DHT22;8581;47.334;11.190;2023-04-20T07:53:18;3.60;99.90
16929;DHT22;8581;47.334;11.190;2023-04-20T07:55:49;3.60;99.90
16929;DHT22;8581;47.334;11.190;2023-04-20T07:58:21;3.80;99.90
16929;DHT22;8581;47.334;11.190;2023-04-20T08:00:53;4.00;99.90
16929;DHT22;8581;47.334;11.190;2023-04-20T08:03:24;4.10;99.90
16929;DHT22;8581;47.334;11.190;2023-04-20T08:05:56;3.90;99.90
16929;DHT22;8581;47.334;11.190;2023-04-20T08:08:27;4.10;99.90
16929;DHT22;8581;47.334;11.190;2023-04-20T08:10:59;4.00;99.90
16929;DHT22;8581;47.334;11.190;2023-04-20T08:13:31;4.20;99.90
16929;DHT22;8581;47.334;11.190;2023-04-20T08:16:02;4.40;99.90
16929;DHT22;8581;47.334;11.190;2023-04-20T08:18:34;4.30;99.90
16929;DHT22;8581;47.334;11.190;2023-04-20T08:21:05;4.90;99.90
16929;DHT22;8581;47.334;11.190;2023-04-20T08:23:37;5.50;99.90
16929;DHT22;8581;47.334;11.190;2023-04-20T08:26:13;5.80;99.90
16929;DHT22;8581;47.334;11.190;2023-04-20T08:28:40;6.20;99.90
16929;DHT22;8581;47.334;11.190;2023-04-20T08:31:12;6.10;99.90
16929;DHT22;8581;47.334;11.190;2023-04-20T08:33:43;6.30;99.90
16929;DHT22;8581;47.334;11.190;2023-04-20T08:36:15;6.80;99.90
16929;DHT22;8581;47.334;11.190;2023-04-20T08:38:56;6.20;99.90
16929;DHT22;8581;47.334;11.190;2023-04-20T08:41:18;6.50;99.90
16929;DHT22;8581;47.334;11.190;2023-04-20T08:43:50;6.80;99.90
16929;DHT22;8581;47.334;11.190;2023-04-20T08:46:22;6.80;99.90
16929;DHT22;8581;47.334;11.190;2023-04-20T08:48:53;6.50;99.90
16929;DHT22;8581;47.334;11.190;2023-04-20T08:51:26;6.60;99.90
16929;DHT22;8581;47.334;11.190;2023-04-20T08:54:04;6.30;99.90
16929;DHT22;8581;47.334;11.190;2023-04-20T08:56:37;6.20;99.90
16929;DHT22;8581;47.334;11.190;2023-04-20T08:59:08;6.40;99.90
16929;DHT22;8581;47.334;11.190;2023-04-20T09:01:41;6.90;99.90
16929;DHT22;8581;47.334;11.190;2023-04-20T09:04:18;6.90;99.90
16929;DHT22;8581;47.334;11.190;2023-04-20T09:06:50;6.90;99.90
16929;DHT22;8581;47.334;11.190;2023-04-20T09:09:21;7.10;99.90
16929;DHT22;8581;47.334;11.190;2023-04-20T09:12:02;7.00;99.90
16929;DHT22;8581;47.334;11.190;2023-04-20T09:14:42;7.30;99.90
16929;DHT22;8581;47.334;11.190;2023-04-20T09:17:13;7.80;99.90
16929;DHT22;8581;47.334;11.190;2023-04-20T09:19:45;7.80;99.90
16929;DHT22;8581;47.334;11.190;2023-04-20T09:22:16;7.20;99.90
16929;DHT22;8581;47.334;11.190;2023-04-20T09:24:47;7.30;99.90
16929;DHT22;8581;47.334;11.190;2023-04-20T09:27:19;7.90;99.90
16929;DHT22;8581;47.334;11.190;2023-04-20T09:29:56;8.40;99.90
16929;DHT22;8581;47.334;11.190;2023-04-20T09:32:26;8.60;99.90
16929;DHT22;8581;47.334;11.190;2023-04-20T09:34:58;9.20;99.90
16929;DHT22;8581;47.334;11.190;2023-04-20T09:37:29;9.30;99.90
16929;DHT22;8581;47.334;11.190;2023-04-20T09:40:01;8.90;99.90
16929;DHT22;8581;47.334;11.190;2023-04-20T09:42:33;9.20;99.90
16929;DHT22;8581;47.334;11.190;2023-04-20T09:45:05;8.40;99.90
16929;DHT22;8581;47.334;11.190;2023-04-20T09:47:37;8.50;99.90
16929;DHT22;8581;47.334;11.190;2023-04-20T09:50:10;8.10;99.90
16929;DHT22;8581;47.334;11.190;2023-04-20T09:52:42;7.80;99.90
16929;DHT22;8581;47.334;11.190;2023-04-20T09:55:13;7.10;99.90
16929;DHT22;8581;47.334;11.190;2023-04-20T09:57:45;7.60;99.90
16929;DHT22;8581;47.334;11.190;2023-04-20T10:00:17;7.70;99.90
16929;DHT22;8581;47.334;11.190;2023-04-20T10:02:49;8.10;99.90
16929;DHT22;8581;47.334;11.190;2023-04-20T10:05:31;7.70;99.90
16929;DHT22;8581;47.334;11.190;2023-04-20T10:07:57;7.60;99.90
16929;DHT22;8581;47.334;11.190;2023-04-20T10:10:23;8.10;99.90
16929;DHT22;8581;47.334;11.190;2023-04-20T10:12:56;8.60;99.90
16929;DHT22;8581;47.334;11.190;2023-04-20T10:15:39;9.50;99.90
16929;DHT22;8581;47.334;11.190;2023-04-20T10:18:27;10.60;99.90
16929;DHT22;8581;47.334;11.190;2023-04-20T10:21:04;10.20;99.90
16929;DHT22;8581;47.334;11.190;2023-04-20T10:23:35;10.30;99.90
16929;DHT22;8581;47.334;11.190;2023-04-20T10:26:06;9.50;99.90
16929;DHT22;8581;47.334;11.190;2023-04-20T10:28:38;9.70;99.90
16929;DHT22;8581;47.334;11.190;2023-04-20T10:31:11;9.90;99.90
16929;DHT22;8581;47.334;11.190;2023-04-20T10:33:50;9.70;99.90
16929;DHT22;8581;47.334;11.190;2023-04-20T10:36:26;10.60;99.90
16929;DHT22;8581;47.334;11.190;2023-04-20T10:38:56;10.60;99.90
16929;DHT22;8581;47.334;11.190;2023-04-20T10:41:27;10.70;99.90
16929;DHT22;8581;47.334;11.190;2023-04-20T10:44:07;11.40;99.90
16929;DHT22;8581;47.334;11.190;2023-04-20T10:46:39;12.00;99.90
16929;DHT22;8581;47.334;11.190;2023-04-20T10:49:10;13.60;99.90
16929;DHT22;8581;47.334;11.190;2023-04-20T10:51:48;14.40;99.90
16929;DHT22;8581;47.334;11.190;2023-04-20T10:54:19;13.90;99.90
16929;DHT22;8581;47.334;11.190;2023-04-20T10:56:51;14.20;99.90
16929;DHT22;8581;47.334;11.190;2023-04-20T10:59:23;14.70;99.90
16929;DHT22;8581;47.334;11.190;2023-04-20T11:01:54;15.20;99.90
16929;DHT22;8581;47.334;11.190;2023-04-20T11:04:28;14.10;99.90
16929;DHT22;8581;47.334;11.190;2023-04-20T11:07:05;13.40;99.90
16929;DHT22;8581;47.334;11.190;2023-04-20T11:09:36;12.80;99.90
16929;DHT22;8581;47.334;11.190;2023-04-20T11:12:09;11.80;99.90
16929;DHT22;8581;47.334;11.190;2023-04-20T11:14:51;11.50;99.90
16929;DHT22;8581;47.334;11.190;2023-04-20T11:17:31;11.70;99.90
16929;DHT22;8581;47.334;11.190;2023-04-20T11:20:08;11.40;99.90
16929;DHT22;8581;47.334;11.190;2023-04-20T11:22:42;11.20;99.90
16929;DHT22;8581;47.334;11.190;2023-04-20T11:25:14;10.60;99.90
16929;DHT22;8581;47.334;11.190;2023-04-20T11:27:45;10.30;99.90
16929;DHT22;8581;47.334;11.190;2023-04-20T11:30:17;9.70;99.90
16929;DHT22;8581;47.334;11.190;2023-04-20T11:32:52;9.30;99.90
16929;DHT22;8581;47.334;11.190;2023-04-20T11:35:20;8.20;99.90
16929;DHT22;8581;47.334;11.190;2023-04-20T11:37:52;7.90;99.90
16929;DHT22;8581;47.334;11.190;2023-04-20T11:40:24;7.90;99.90
16929;DHT22;8581;47.334;11.190;2023-04-20T11:42:56;7.90;99.90
16929;DHT22;8581;47.334;11.190;2023-04-20T11:45:29;7.80;99.90
16929;DHT22;8581;47.334;11.190;2023-04-20T11:47:59;7.70;99.90
16929;DHT22;8581;47.334;11.190;2023-04-20T11:50:30;7.30;99.90
16929;DHT22;8581;47.334;11.190;2023-04-20T11:53:02;7.00;99.90
16929;DHT22;8581;47.334;11.190;2023-04-20T11:55:34;7.40;99.90
16929;DHT22;8581;47.334;11.190;2023-04-20T11:58:05;7.60;99.90
16929;DHT22;8581;47.334;11.190;2023-04-20T12:00:38;7.60;99.90
16929;DHT22;8581;47.334;11.190;2023-04-20T12:03:09;7.90;99.90
16929;DHT22;8581;47.334;11.190;2023-04-20T12:05:41;8.30;99.90
16929;DHT22;8581;47.334;11.190;2023-04-20T12:08:12;8.30;99.90
16929;DHT22;8581;47.334;11.190;2023-04-20T12:10:44;8.60;99.90
16929;DHT22;8581;47.334;11.190;2023-04-20T12:13:16;8.50;99.90
16929;DHT22;8581;47.334;11.190;2023-04-20T12:15:47;8.80;99.90
16929;DHT22;8581;47.334;11.190;2023-04-20T12:18:19;9.30;99.90
16929;DHT22;8581;47.334;11.190;2023-04-20T12:20:51;9.60;99.90
16929;DHT22;8581;47.334;11.190;2023-04-20T12:23:22;10.00;99.90
16929;DHT22;8581;47.334;11.190;2023-04-20T12:25:54;9.90;99.90
16929;DHT22;8581;47.334;11.190;2023-04-20T12:28:25;10.10;99.90
16929;DHT22;8581;47.334;11.190;2023-04-20T12:30:57;9.70;99.90
16929;DHT22;8581;47.334;11.190;2023-04-20T12:33:28;9.90;99.90
16929;DHT22;8581;47.334;11.190;2023-04-20T12:36:00;10.00;99.90
16929;DHT22;8581;47.334;11.190;2023-04-20T12:38:32;9.80;99.90
16929;DHT22;8581;47.334;11.190;2023-04-20T12:41:03;9.70;99.90
16929;DHT22;8581;47.334;11.190;2023-04-20T12:43:35;9.70;99.90
16929;DHT22;8581;47.334;11.190;2023-04-20T12:46:07;10.00;99.90
16929;DHT22;8581;47.334;11.190;2023-04-20T12:48:38;10.50;99.90
16929;DHT22;8581;47.334;11.190;2023-04-20T12:51:10;10.40;99.90
16929;DHT22;8581;47.334;11.190;2023-04-20T12:53:41;10.00;99.90
16929;DHT22;8581;47.334;11.190;2023-04-20T12:56:13;9.60;99.90
16929;DHT22;8581;47.334;11.190;2023-04-20T12:58:45;9.50;99.90
16929;DHT22;8581;47.334;11.190;2023-04-20T13:01:16;9.50;99.90
16929;DHT22;8581;47.334;11.190;2023-04-20T13:03:49;9.10;99.90
16929;DHT22;8581;47.334;11.190;2023-04-20T13:06:19;9.60;99.90
16929;DHT22;8581;47.334;11.190;2023-04-20T13:08:51;9.60;99.90
16929;DHT22;8581;47.334;11.190;2023-04-20T13:11:23;9.70;99.90
16929;DHT22;8581;47.334;11.190;2023-04-20T13:13:54;10.50;99.90
16929;DHT22;8581;47.334;11.190;2023-04-20T13:16:26;10.60;99.90
16929;DHT22;8581;47.334;11.190;2023-04-20T13:18:57;10.60;99.90
16929;DHT22;8581;47.334;11.190;2023-04-20T13:21:29;10.80;99.90
16929;DHT22;8581;47.334;11.190;2023-04-20T13:24:01;11.30;99.90
16929;DHT22;8581;47.334;11.190;2023-04-20T13:26:32;11.60;99.90
16929;DHT22;8581;47.334;11.190;2023-04-20T13:29:04;11.80;99.90
16929;DHT22;8581;47.334;11.190;2023-04-20T13:31:36;11.90;99.90
16929;DHT22;8581;47.334;11.190;2023-04-20T13:34:07;12.00;99.90
16929;DHT22;8581;47.334;11.190;2023-04-20T13:36:39;12.00;99.90
16929;DHT22;8581;47.334;11.190;2023-04-20T13:39:11;11.50;99.90
16929;DHT22;8581;47.334;11.190;2023-04-20T13:41:42;11.80;99.90
16929;DHT22;8581;47.334;11.190;2023-04-20T13:44:14;13.00;99.90
16929;DHT22;8581;47.334;11.190;2023-04-20T13:46:46;13.00;99.90
16929;DHT22;8581;47.334;11.190;2023-04-20T13:49:18;13.20;99.90
16929;DHT22;8581;47.334;11.190;2023-04-20T13:51:49;14.70;99.90
16929;DHT22;8581;47.334;11.190;2023-04-20T13:54:21;16.50;99.90
16929;DHT22;8581;47.334;11.190;2023-04-20T13:56:52;16.60;99.90
16929;DHT22;8581;47.334;11.190;2023-04-20T13:59:24;16.60;99.90
16929;DHT22;8581;47.334;11.190;2023-04-20T14:01:56;17.50;99.90
16929;DHT22;8581;47.334;11.190;2023-04-20T14:04:27;16.20;99.90
16929;DHT22;8581;47.334;11.190;2023-04-20T14:06:59;14.50;99.90
16929;DHT22;8581;47.334;11.190;2023-04-20T14:09:30;13.10;99.90
16929;DHT22;8581;47.334;11.190;2023-04-20T14:12:02;12.20;99.90
16929;DHT22;8581;47.334;11.190;2023-04-20T14:14:34;11.70;99.90
16929;DHT22;8581;47.334;11.190;2023-04-20T14:17:05;11.30;99.90
16929;DHT22;8581;47.334;11.190;2023-04-20T14:19:37;10.80;99.90
16929;DHT22;8581;47.334;11.190;2023-04-20T14:22:08;10.30;99.90
16929;DHT22;8581;47.334;11.190;2023-04-20T14:24:40;10.00;99.90
16929;DHT22;8581;47.334;11.190;2023-04-20T14:27:12;10.20;99.90
16929;DHT22;8581;47.334;11.190;2023-04-20T14:29:43;9.80;99.90
16929;DHT22;8581;47.334;11.190;2023-04-20T14:32:15;9.90;99.90
16929;DHT22;8581;47.334;11.190;2023-04-20T14:34:46;9.90;99.90
16929;DHT22;8581;47.334;11.190;2023-04-20T14:37:18;9.80;99.90
16929;DHT22;8581;47.334;11.190;2023-04-20T14:39:50;10.20;99.90
16929;DHT22;8581;47.334;11.190;2023-04-20T14:42:21;10.30;99.90
16929;DHT22;8581;47.334;11.190;2023-04-20T14:44:53;10.20;99.90
16929;DHT22;8581;47.334;11.190;2023-04-20T14:47:24;10.30;99.90
16929;DHT22;8581;47.334;11.190;2023-04-20T14:49:56;10.40;99.90
16929;DHT22;8581;47.334;11.190;2023-04-20T14:52:28;10.40;99.90
16929;DHT22;8581;47.334;11.190;2023-04-20T14:54:59;10.20;99.90
16929;DHT22;8581;47.334;11.190;2023-04-20T14:57:31;10.50;99.90
16929;DHT22;8581;47.334;11.190;2023-04-20T15:00:03;10.80;99.90
16929;DHT22;8581;47.334;11.190;2023-04-20T15:02:35;11.30;99.90
16929;DHT22;8581;47.334;11.190;2023-04-20T15:05:07;12.10;99.90
16929;DHT22;8581;47.334;11.190;2023-04-20T15:07:38;12.70;99.90
16929;DHT22;8581;47.334;11.190;2023-04-20T15:10:10;13.40;99.90
16929;DHT22;8581;47.334;11.190;2023-04-20T15:12:42;12.50;99.90
16929;DHT22;8581;47.334;11.190;2023-04-20T15:15:13;11.20;99.90
16929;DHT22;8581;47.334;11.190;2023-04-20T15:17:45;11.30;99.90
16929;DHT22;8581;47.334;11.190;2023-04-20T15:20:16;10.90;99.90
16929;DHT22;8581;47.334;11.190;2023-04-20T15:22:48;11.20;99.90
16929;DHT22;8581;47.334;11.190;2023-04-20T15:25:20;11.50;99.90
16929;DHT22;8581;47.334;11.190;2023-04-20T15:27:51;11.80;99.90
16929;DHT22;8581;47.334;11.190;2023-04-20T15:30:23;12.10;99.90
16929;DHT22;8581;47.334;11.190;2023-04-20T15:32:55;11.40;99.90
16929;DHT22;8581;47.334;11.190;2023-04-20T15:35:26;11.30;99.90
16929;DHT22;8581;47.334;11.190;2023-04-20T15:37:58;11.50;99.90
16929;DHT22;8581;47.334;11.190;2023-04-20T15:40:29;11.70;99.90
16929;DHT22;8581;47.334;11.190;2023-04-20T15:43:01;11.90;99.90
16929;DHT22;8581;47.334;11.190;2023-04-20T15:45:33;12.10;99.90
16929;DHT22;8581;47.334;11.190;2023-04-20T15:48:04;12.00;99.90
16929;DHT22;8581;47.334;11.190;2023-04-20T15:50:36;12.10;99.90
16929;DHT22;8581;47.334;11.190;2023-04-20T15:53:07;12.00;99.90
16929;DHT22;8581;47.334;11.190;2023-04-20T15:55:39;12.00;99.90
16929;DHT22;8581;47.334;11.190;2023-04-20T15:58:11;11.60;99.90
16929;DHT22;8581;47.334;11.190;2023-04-20T16:00:42;11.80;99.90
16929;DHT22;8581;47.334;11.190;2023-04-20T16:03:14;11.90;99.90
16929;DHT22;8581;47.334;11.190;2023-04-20T16:05:45;12.00;99.90
16929;DHT22;8581;47.334;11.190;2023-04-20T16:08:17;11.80;99.90
16929;DHT22;8581;47.334;11.190;2023-04-20T16:10:49;11.80;99.90